IBE2KL LEMD-LEVC
Flight info
| Callsign | IBE2KL |
|---|---|
| Flight time | N/A |
| Altitude | 18000 |
| Route | NANDO M871 MABUX |
| Aircraft | A20N/M-SDE2E3FGHIJ1RWXY/LB1 |
Departure
| Time | 2026-05-01 15:27 |
|---|---|
| Airport | Adolfo Suárez Madrid–Barajas Airport (LEMD) |
Arrival
| Time | N/A |
|---|---|
| Airport | Valencia Airport (LEVC) |
| Time | Latitude | Longitude | Altitude | Speed | Heading |
|---|---|---|---|---|---|
| 2026-05-01 15:15 | 40.49473 | -3.56367 | 1959 ft | 0 kts | 269° |
| 2026-05-01 15:22 | 40.49473 | -3.56407 | 1960 ft | 10 kts | 269° |
| 2026-05-01 15:22 | 40.49497 | -3.56453 | 1964 ft | 0 kts | 347° |
| 2026-05-01 15:24 | 40.49499 | -3.56454 | 1962 ft | 1 kts | 347° |
| 2026-05-01 15:24 | 40.49540 | -3.56443 | 1961 ft | 13 kts | 25° |
| 2026-05-01 15:24 | 40.49556 | -3.56319 | 1958 ft | 15 kts | 88° |
| 2026-05-01 15:24 | 40.49558 | -3.56242 | 1956 ft | 10 kts | 89° |
| 2026-05-01 15:25 | 40.49557 | -3.56175 | 1955 ft | 6 kts | 91° |
| 2026-05-01 15:25 | 40.49556 | -3.56100 | 1954 ft | 10 kts | 89° |
| 2026-05-01 15:25 | 40.49557 | -3.55991 | 1953 ft | 13 kts | 91° |
| 2026-05-01 15:25 | 40.49538 | -3.55863 | 1952 ft | 15 kts | 115° |
| 2026-05-01 15:26 | 40.49467 | -3.55752 | 1952 ft | 17 kts | 141° |
| 2026-05-01 15:26 | 40.49333 | -3.55613 | 1948 ft | 48 kts | 142° |
| 2026-05-01 15:26 | 40.48877 | -3.55161 | 1938 ft | 113 kts | 141° |
| 2026-05-01 15:26 | 40.48117 | -3.54394 | 1920 ft | 161 kts | 143° |
| 2026-05-01 15:27 | 40.47168 | -3.53481 | 2265 ft | 174 kts | 145° |
| 2026-05-01 15:27 | 40.46209 | -3.52516 | 2929 ft | 172 kts | 143° |
| 2026-05-01 15:27 | 40.45289 | -3.51539 | 3669 ft | 168 kts | 143° |
| 2026-05-01 15:28 | 40.43337 | -3.49406 | 4661 ft | 202 kts | 136° |
| 2026-05-01 15:28 | 40.42450 | -3.47840 | 5165 ft | 225 kts | 122° |
| 2026-05-01 15:28 | 40.41652 | -3.46003 | 5873 ft | 236 kts | 122° |
| 2026-05-01 15:29 | 40.39973 | -3.42235 | 7702 ft | 243 kts | 123° |
| 2026-05-01 15:29 | 40.39103 | -3.40304 | 8596 ft | 248 kts | 123° |
| 2026-05-01 15:29 | 40.37314 | -3.36339 | 10345 ft | 257 kts | 123° |
| 2026-05-01 15:30 | 40.35802 | -3.32925 | 11696 ft | 265 kts | 118° |
| 2026-05-01 15:31 | 40.32454 | -3.22254 | 14576 ft | 308 kts | 114° |
| 2026-05-01 15:31 | 40.30802 | -3.16998 | 16035 ft | 315 kts | 114° |
| 2026-05-01 15:32 | 40.29103 | -3.11611 | 17453 ft | 325 kts | 114° |
| 2026-05-01 15:32 | 40.27352 | -3.06071 | 18099 ft | 331 kts | 114° |
| 2026-05-01 15:33 | 40.24632 | -2.97493 | 18134 ft | 372 kts | 114° |
| 2026-05-01 15:34 | 40.21511 | -2.87664 | 18134 ft | 393 kts | 113° |